Accueil
METAR-TAF:

METAR-TAF

Aéroports :

Aéroport d'Iqaluit

Iqaluit, Nunavut, Canada

latitude: 63-45N, longitude: 068-33W, altitude: 34 m

Observation

Le bulletin a été fait il y a 49 minutes, à 04:00 UTC
Vent 3 kt de nord, variant entre ouest et nord
Température 10°C
Humidité 76%
Pression 1021 hPa
Visibilité: 48.3 km
Quelques nuages à une hauteur de 14000 ft

METAR: CYFB 150400Z 35003KT 280V010 30SM FEW140 10/06 A3015 RMK AC1 AC TR SLP212

Heure: 00:49 (04:49 UTC)

Prévision

Le bulletin a été fait il y a 5 heures et 8 minutes, à 23:41 UTC
Prévision valable du 15 à 00 UTC au 15 à 24 UTC
Vent 3 kt de direction variable
Visibilité: 10 km
Quelques nuages à une hauteur de 12000 ft
Evoluant progressivement
du 15 à 16 UTC au 15 à 18 UTC
Vent 8 kt de sud-est

TAF: CYFB 142341Z 1500/1524 VRB03KT P6SM FEW120 BECMG 1516/1518 14008KT RMK NXT FCST BY 150600Z

Observations et prévisions météorologiques de plus de 4000 aéroports (messages METAR et TAF).

Les stations disponibles sont représentées par des disques jaunes et rouges sur la carte.

Passer la souris dessus pour voir le nom de la station.

Cliquer dessus pour voir les observations et prévisions météorologiques.

Pour changer de carte: cliquez sur les boutons verts avec une croix noire pour zoomer, sur le bouton vert avec un tiret pour effectuer un zoom arrière, ou sur les flèches vertes pour les cartes adjacentes.


METAR-TAF: